sensor_id;sensor_type;location;lat;lon;timestamp;temperature;humidity
23681;DHT22;62915;50.832;4.462;2023-03-11T00:00:13;4.20;99.90
23681;DHT22;62915;50.832;4.462;2023-03-11T00:02:42;4.10;99.90
23681;DHT22;62915;50.832;4.462;2023-03-11T00:05:08;4.10;99.90
23681;DHT22;62915;50.832;4.462;2023-03-11T00:07:34;4.10;99.90
23681;DHT22;62915;50.832;4.462;2023-03-11T00:10:02;4.20;99.90
23681;DHT22;62915;50.832;4.462;2023-03-11T00:12:28;4.30;99.90
23681;DHT22;62915;50.832;4.462;2023-03-11T00:14:54;4.30;99.90
23681;DHT22;62915;50.832;4.462;2023-03-11T00:17:20;4.10;99.90
23681;DHT22;62915;50.832;4.462;2023-03-11T00:19:45;4.10;99.90
23681;DHT22;62915;50.832;4.462;2023-03-11T00:22:11;4.10;99.90
23681;DHT22;62915;50.832;4.462;2023-03-11T00:24:37;4.10;99.90
23681;DHT22;62915;50.832;4.462;2023-03-11T00:27:03;4.00;99.90
23681;DHT22;62915;50.832;4.462;2023-03-11T00:29:28;4.00;99.90
23681;DHT22;62915;50.832;4.462;2023-03-11T00:31:54;4.00;99.90
23681;DHT22;62915;50.832;4.462;2023-03-11T00:34:20;4.10;99.90
23681;DHT22;62915;50.832;4.462;2023-03-11T00:36:46;3.90;99.90
23681;DHT22;62915;50.832;4.462;2023-03-11T00:39:11;3.90;99.90
23681;DHT22;62915;50.832;4.462;2023-03-11T00:41:37;4.00;99.90
23681;DHT22;62915;50.832;4.462;2023-03-11T00:44:03;3.90;99.90
23681;DHT22;62915;50.832;4.462;2023-03-11T00:46:30;3.90;99.90
23681;DHT22;62915;50.832;4.462;2023-03-11T00:48:56;3.90;99.90
23681;DHT22;62915;50.832;4.462;2023-03-11T00:51:22;3.90;99.90
23681;DHT22;62915;50.832;4.462;2023-03-11T00:53:48;4.00;99.90
23681;DHT22;62915;50.832;4.462;2023-03-11T00:56:14;4.00;99.90
23681;DHT22;62915;50.832;4.462;2023-03-11T00:58:43;3.90;99.90
23681;DHT22;62915;50.832;4.462;2023-03-11T01:01:17;4.00;99.90
23681;DHT22;62915;50.832;4.462;2023-03-11T01:03:43;3.90;99.90
23681;DHT22;62915;50.832;4.462;2023-03-11T01:06:09;3.90;99.90
23681;DHT22;62915;50.832;4.462;2023-03-11T01:08:35;3.80;99.90
23681;DHT22;62915;50.832;4.462;2023-03-11T01:11:02;3.80;99.90
23681;DHT22;62915;50.832;4.462;2023-03-11T01:13:29;3.80;99.90
23681;DHT22;62915;50.832;4.462;2023-03-11T01:15:55;3.70;99.90
23681;DHT22;62915;50.832;4.462;2023-03-11T01:18:22;3.70;99.90
23681;DHT22;62915;50.832;4.462;2023-03-11T01:20:48;3.60;99.90
23681;DHT22;62915;50.832;4.462;2023-03-11T01:23:14;3.60;99.90
23681;DHT22;62915;50.832;4.462;2023-03-11T01:25:40;3.60;99.90
23681;DHT22;62915;50.832;4.462;2023-03-11T01:28:07;3.60;99.90
23681;DHT22;62915;50.832;4.462;2023-03-11T01:30:34;3.70;99.90
23681;DHT22;62915;50.832;4.462;2023-03-11T01:33:01;3.80;99.90
23681;DHT22;62915;50.832;4.462;2023-03-11T01:35:28;3.70;99.90
23681;DHT22;62915;50.832;4.462;2023-03-11T01:37:55;3.80;99.90
23681;DHT22;62915;50.832;4.462;2023-03-11T01:40:32;3.70;99.90
23681;DHT22;62915;50.832;4.462;2023-03-11T01:42:58;3.70;99.90
23681;DHT22;62915;50.832;4.462;2023-03-11T01:48:12;3.80;99.90
23681;DHT22;62915;50.832;4.462;2023-03-11T01:50:41;3.80;99.90
23681;DHT22;62915;50.832;4.462;2023-03-11T01:53:08;3.60;99.90
23681;DHT22;62915;50.832;4.462;2023-03-11T01:55:34;3.60;99.90
23681;DHT22;62915;50.832;4.462;2023-03-11T01:58:03;3.60;99.90
23681;DHT22;62915;50.832;4.462;2023-03-11T02:00:30;3.60;99.90
23681;DHT22;62915;50.832;4.462;2023-03-11T02:02:57;3.60;99.90
23681;DHT22;62915;50.832;4.462;2023-03-11T02:05:24;3.60;99.90
23681;DHT22;62915;50.832;4.462;2023-03-11T02:07:52;3.60;99.90
23681;DHT22;62915;50.832;4.462;2023-03-11T02:10:19;3.70;99.90
23681;DHT22;62915;50.832;4.462;2023-03-11T02:12:48;3.80;99.90
23681;DHT22;62915;50.832;4.462;2023-03-11T02:15:15;3.80;99.90
23681;DHT22;62915;50.832;4.462;2023-03-11T02:17:41;3.80;99.90
23681;DHT22;62915;50.832;4.462;2023-03-11T02:20:15;3.80;99.90
23681;DHT22;62915;50.832;4.462;2023-03-11T02:22:43;3.80;99.90
23681;DHT22;62915;50.832;4.462;2023-03-11T02:25:33;3.80;99.90
23681;DHT22;62915;50.832;4.462;2023-03-11T02:28:02;3.80;99.90
23681;DHT22;62915;50.832;4.462;2023-03-11T02:30:31;3.80;99.90
23681;DHT22;62915;50.832;4.462;2023-03-11T02:32:58;3.90;99.90
23681;DHT22;62915;50.832;4.462;2023-03-11T02:35:24;3.80;99.90
23681;DHT22;62915;50.832;4.462;2023-03-11T02:37:52;3.80;99.90
23681;DHT22;62915;50.832;4.462;2023-03-11T02:42:58;3.60;99.90
23681;DHT22;62915;50.832;4.462;2023-03-11T02:45:25;3.60;99.90
23681;DHT22;62915;50.832;4.462;2023-03-11T02:47:54;3.70;99.90
23681;DHT22;62915;50.832;4.462;2023-03-11T02:50:21;3.60;99.90
23681;DHT22;62915;50.832;4.462;2023-03-11T02:52:50;3.50;99.90
23681;DHT22;62915;50.832;4.462;2023-03-11T02:55:16;3.60;99.90
23681;DHT22;62915;50.832;4.462;2023-03-11T02:57:46;3.50;99.90
23681;DHT22;62915;50.832;4.462;2023-03-11T03:00:14;3.60;99.90
23681;DHT22;62915;50.832;4.462;2023-03-11T03:02:41;3.60;99.90
23681;DHT22;62915;50.832;4.462;2023-03-11T03:05:08;3.40;99.90
23681;DHT22;62915;50.832;4.462;2023-03-11T03:07:34;3.50;99.90
23681;DHT22;62915;50.832;4.462;2023-03-11T03:10:01;3.60;99.90
23681;DHT22;62915;50.832;4.462;2023-03-11T03:12:26;3.50;99.90
23681;DHT22;62915;50.832;4.462;2023-03-11T03:14:52;3.50;99.90
23681;DHT22;62915;50.832;4.462;2023-03-11T03:17:18;3.60;99.90
23681;DHT22;62915;50.832;4.462;2023-03-11T03:19:43;3.60;99.90
23681;DHT22;62915;50.832;4.462;2023-03-11T03:22:09;3.70;99.90
23681;DHT22;62915;50.832;4.462;2023-03-11T03:24:35;3.60;99.90
23681;DHT22;62915;50.832;4.462;2023-03-11T03:27:00;3.50;99.90
23681;DHT22;62915;50.832;4.462;2023-03-11T03:29:26;3.60;99.90
23681;DHT22;62915;50.832;4.462;2023-03-11T03:31:52;3.70;99.90
23681;DHT22;62915;50.832;4.462;2023-03-11T03:34:17;3.80;99.90
23681;DHT22;62915;50.832;4.462;2023-03-11T03:36:43;3.70;99.90
23681;DHT22;62915;50.832;4.462;2023-03-11T03:39:09;3.80;99.90
23681;DHT22;62915;50.832;4.462;2023-03-11T03:41:34;3.80;99.90
23681;DHT22;62915;50.832;4.462;2023-03-11T03:44:00;3.80;99.90
23681;DHT22;62915;50.832;4.462;2023-03-11T03:46:26;3.90;99.90
23681;DHT22;62915;50.832;4.462;2023-03-11T03:48:51;3.90;99.90
23681;DHT22;62915;50.832;4.462;2023-03-11T03:51:17;4.00;99.90
23681;DHT22;62915;50.832;4.462;2023-03-11T03:53:43;4.00;99.90
23681;DHT22;62915;50.832;4.462;2023-03-11T03:56:13;3.90;99.90
23681;DHT22;62915;50.832;4.462;2023-03-11T03:58:39;3.90;99.90
23681;DHT22;62915;50.832;4.462;2023-03-11T04:01:06;4.00;99.90
23681;DHT22;62915;50.832;4.462;2023-03-11T04:03:32;4.00;99.90
23681;DHT22;62915;50.832;4.462;2023-03-11T04:06:20;4.00;99.90
23681;DHT22;62915;50.832;4.462;2023-03-11T04:08:46;3.90;99.90
23681;DHT22;62915;50.832;4.462;2023-03-11T04:11:12;3.90;99.90
23681;DHT22;62915;50.832;4.462;2023-03-11T04:13:38;3.80;99.90
23681;DHT22;62915;50.832;4.462;2023-03-11T04:16:06;3.80;99.90
23681;DHT22;62915;50.832;4.462;2023-03-11T04:18:32;3.80;99.90
23681;DHT22;62915;50.832;4.462;2023-03-11T04:20:58;3.80;99.90
23681;DHT22;62915;50.832;4.462;2023-03-11T04:23:24;3.80;99.90
23681;DHT22;62915;50.832;4.462;2023-03-11T04:25:50;3.80;99.90
23681;DHT22;62915;50.832;4.462;2023-03-11T04:28:15;3.80;99.90
23681;DHT22;62915;50.832;4.462;2023-03-11T04:30:41;3.80;99.90
23681;DHT22;62915;50.832;4.462;2023-03-11T04:33:07;3.70;99.90
23681;DHT22;62915;50.832;4.462;2023-03-11T04:35:32;3.70;99.90
23681;DHT22;62915;50.832;4.462;2023-03-11T04:37:59;3.70;99.90
23681;DHT22;62915;50.832;4.462;2023-03-11T04:40:26;3.70;99.90
23681;DHT22;62915;50.832;4.462;2023-03-11T04:42:52;3.70;99.90
23681;DHT22;62915;50.832;4.462;2023-03-11T04:45:18;3.70;99.90
23681;DHT22;62915;50.832;4.462;2023-03-11T04:47:48;3.60;99.90
23681;DHT22;62915;50.832;4.462;2023-03-11T04:50:15;3.70;99.90
23681;DHT22;62915;50.832;4.462;2023-03-11T04:52:40;3.70;99.90
23681;DHT22;62915;50.832;4.462;2023-03-11T04:55:07;3.60;99.90
23681;DHT22;62915;50.832;4.462;2023-03-11T04:57:32;3.60;99.90
23681;DHT22;62915;50.832;4.462;2023-03-11T04:59:58;3.40;99.90
23681;DHT22;62915;50.832;4.462;2023-03-11T05:02:24;3.40;99.90
23681;DHT22;62915;50.832;4.462;2023-03-11T05:04:49;3.40;99.90
23681;DHT22;62915;50.832;4.462;2023-03-11T05:07:15;3.50;99.90
23681;DHT22;62915;50.832;4.462;2023-03-11T05:09:41;3.40;99.90
23681;DHT22;62915;50.832;4.462;2023-03-11T05:12:08;3.50;99.90
23681;DHT22;62915;50.832;4.462;2023-03-11T05:14:35;3.40;99.90
23681;DHT22;62915;50.832;4.462;2023-03-11T05:17:00;3.40;99.90
23681;DHT22;62915;50.832;4.462;2023-03-11T05:19:26;3.30;99.90
23681;DHT22;62915;50.832;4.462;2023-03-11T05:22:02;3.40;99.90
23681;DHT22;62915;50.832;4.462;2023-03-11T05:24:29;3.30;99.90
23681;DHT22;62915;50.832;4.462;2023-03-11T05:26:56;3.30;99.90
23681;DHT22;62915;50.832;4.462;2023-03-11T05:29:22;3.30;99.90
23681;DHT22;62915;50.832;4.462;2023-03-11T05:31:48;3.30;99.90
23681;DHT22;62915;50.832;4.462;2023-03-11T05:34:15;3.20;99.90
23681;DHT22;62915;50.832;4.462;2023-03-11T05:36:41;3.20;99.90
23681;DHT22;62915;50.832;4.462;2023-03-11T05:39:06;3.20;99.90
23681;DHT22;62915;50.832;4.462;2023-03-11T05:41:32;3.20;99.90
23681;DHT22;62915;50.832;4.462;2023-03-11T05:43:58;3.20;99.90
23681;DHT22;62915;50.832;4.462;2023-03-11T05:46:24;3.20;99.90
23681;DHT22;62915;50.832;4.462;2023-03-11T05:48:50;3.20;99.90
23681;DHT22;62915;50.832;4.462;2023-03-11T05:51:15;3.20;99.90
23681;DHT22;62915;50.832;4.462;2023-03-11T05:53:43;3.20;99.90
23681;DHT22;62915;50.832;4.462;2023-03-11T05:56:20;3.10;99.90
23681;DHT22;62915;50.832;4.462;2023-03-11T05:58:46;2.90;99.90
23681;DHT22;62915;50.832;4.462;2023-03-11T06:01:14;3.00;99.90
23681;DHT22;62915;50.832;4.462;2023-03-11T06:03:40;2.80;99.90
23681;DHT22;62915;50.832;4.462;2023-03-11T06:06:08;2.90;99.90
23681;DHT22;62915;50.832;4.462;2023-03-11T06:08:34;2.90;99.90
23681;DHT22;62915;50.832;4.462;2023-03-11T06:11:08;3.00;99.90
23681;DHT22;62915;50.832;4.462;2023-03-11T06:13:35;3.00;99.90
23681;DHT22;62915;50.832;4.462;2023-03-11T06:16:01;3.10;99.90
23681;DHT22;62915;50.832;4.462;2023-03-11T06:18:26;2.90;99.90
23681;DHT22;62915;50.832;4.462;2023-03-11T06:20:53;3.00;99.90
23681;DHT22;62915;50.832;4.462;2023-03-11T06:23:19;3.00;99.90
23681;DHT22;62915;50.832;4.462;2023-03-11T06:25:58;3.00;99.90
23681;DHT22;62915;50.832;4.462;2023-03-11T06:28:24;3.00;99.90
23681;DHT22;62915;50.832;4.462;2023-03-11T06:30:50;3.20;99.90
23681;DHT22;62915;50.832;4.462;2023-03-11T06:33:16;3.30;99.90
23681;DHT22;62915;50.832;4.462;2023-03-11T06:35:42;3.20;99.90
23681;DHT22;62915;50.832;4.462;2023-03-11T06:38:08;3.30;99.90
23681;DHT22;62915;50.832;4.462;2023-03-11T06:40:35;3.30;99.90
23681;DHT22;62915;50.832;4.462;2023-03-11T06:43:01;3.30;99.90
23681;DHT22;62915;50.832;4.462;2023-03-11T06:45:28;3.40;99.90
23681;DHT22;62915;50.832;4.462;2023-03-11T06:47:54;3.40;99.90
23681;DHT22;62915;50.832;4.462;2023-03-11T06:50:20;3.40;99.90
23681;DHT22;62915;50.832;4.462;2023-03-11T06:52:48;3.40;99.90
23681;DHT22;62915;50.832;4.462;2023-03-11T06:55:14;3.40;99.90
23681;DHT22;62915;50.832;4.462;2023-03-11T06:57:41;3.40;99.90
23681;DHT22;62915;50.832;4.462;2023-03-11T07:00:07;3.40;99.90
23681;DHT22;62915;50.832;4.462;2023-03-11T07:02:36;3.30;99.90
23681;DHT22;62915;50.832;4.462;2023-03-11T07:05:02;3.30;99.90
23681;DHT22;62915;50.832;4.462;2023-03-11T07:07:28;3.30;99.90
23681;DHT22;62915;50.832;4.462;2023-03-11T07:09:55;3.40;99.90
23681;DHT22;62915;50.832;4.462;2023-03-11T07:12:22;3.40;99.90
23681;DHT22;62915;50.832;4.462;2023-03-11T07:14:54;3.50;99.90
23681;DHT22;62915;50.832;4.462;2023-03-11T07:17:22;3.70;99.90
23681;DHT22;62915;50.832;4.462;2023-03-11T07:19:47;3.80;99.90
23681;DHT22;62915;50.832;4.462;2023-03-11T07:22:14;3.90;99.90
23681;DHT22;62915;50.832;4.462;2023-03-11T07:24:39;4.00;99.90
23681;DHT22;62915;50.832;4.462;2023-03-11T07:27:05;4.10;99.90
23681;DHT22;62915;50.832;4.462;2023-03-11T07:29:31;4.20;99.90
23681;DHT22;62915;50.832;4.462;2023-03-11T07:31:57;4.40;99.90
23681;DHT22;62915;50.832;4.462;2023-03-11T07:34:22;4.30;99.90
23681;DHT22;62915;50.832;4.462;2023-03-11T07:36:48;4.30;99.90
23681;DHT22;62915;50.832;4.462;2023-03-11T07:39:16;4.50;99.90
23681;DHT22;62915;50.832;4.462;2023-03-11T07:41:42;4.60;99.90
23681;DHT22;62915;50.832;4.462;2023-03-11T07:44:11;4.70;99.90
23681;DHT22;62915;50.832;4.462;2023-03-11T07:46:37;4.90;99.90
23681;DHT22;62915;50.832;4.462;2023-03-11T07:49:03;5.20;99.90
23681;DHT22;62915;50.832;4.462;2023-03-11T07:51:31;5.50;99.90
23681;DHT22;62915;50.832;4.462;2023-03-11T07:53:58;5.50;99.90
23681;DHT22;62915;50.832;4.462;2023-03-11T07:56:27;5.70;99.90
23681;DHT22;62915;50.832;4.462;2023-03-11T07:58:53;6.00;99.90
23681;DHT22;62915;50.832;4.462;2023-03-11T08:01:23;6.10;99.90
23681;DHT22;62915;50.832;4.462;2023-03-11T08:03:51;6.10;99.90
23681;DHT22;62915;50.832;4.462;2023-03-11T08:06:24;6.20;99.90
23681;DHT22;62915;50.832;4.462;2023-03-11T08:08:50;6.40;99.90
23681;DHT22;62915;50.832;4.462;2023-03-11T08:11:17;6.40;99.90
23681;DHT22;62915;50.832;4.462;2023-03-11T08:13:44;6.60;99.90
23681;DHT22;62915;50.832;4.462;2023-03-11T08:16:12;6.40;99.90
23681;DHT22;62915;50.832;4.462;2023-03-11T08:18:38;6.30;99.90
23681;DHT22;62915;50.832;4.462;2023-03-11T08:21:05;6.50;99.90
23681;DHT22;62915;50.832;4.462;2023-03-11T08:23:31;6.70;99.90
23681;DHT22;62915;50.832;4.462;2023-03-11T08:25:57;7.00;99.90
23681;DHT22;62915;50.832;4.462;2023-03-11T08:28:23;7.20;99.90
23681;DHT22;62915;50.832;4.462;2023-03-11T08:30:48;7.50;99.90
23681;DHT22;62915;50.832;4.462;2023-03-11T08:33:14;7.70;99.90
23681;DHT22;62915;50.832;4.462;2023-03-11T08:35:39;7.60;99.90
23681;DHT22;62915;50.832;4.462;2023-03-11T08:38:05;7.60;99.90
23681;DHT22;62915;50.832;4.462;2023-03-11T08:40:31;7.50;99.90
23681;DHT22;62915;50.832;4.462;2023-03-11T08:42:56;7.30;99.90
23681;DHT22;62915;50.832;4.462;2023-03-11T08:45:22;7.20;99.90
23681;DHT22;62915;50.832;4.462;2023-03-11T08:47:48;7.10;99.90
23681;DHT22;62915;50.832;4.462;2023-03-11T08:50:16;7.00;99.90
23681;DHT22;62915;50.832;4.462;2023-03-11T08:52:42;6.70;99.90
23681;DHT22;62915;50.832;4.462;2023-03-11T08:55:14;6.60;99.90
23681;DHT22;62915;50.832;4.462;2023-03-11T08:57:41;6.50;99.90
23681;DHT22;62915;50.832;4.462;2023-03-11T09:00:08;6.30;99.90
23681;DHT22;62915;50.832;4.462;2023-03-11T09:02:36;6.30;99.90
23681;DHT22;62915;50.832;4.462;2023-03-11T09:05:01;6.30;99.90
23681;DHT22;62915;50.832;4.462;2023-03-11T09:07:27;6.20;99.90
23681;DHT22;62915;50.832;4.462;2023-03-11T09:09:53;5.90;99.90
23681;DHT22;62915;50.832;4.462;2023-03-11T09:12:20;5.90;99.90
23681;DHT22;62915;50.832;4.462;2023-03-11T09:14:46;5.80;99.90
23681;DHT22;62915;50.832;4.462;2023-03-11T09:17:11;5.90;99.90
23681;DHT22;62915;50.832;4.462;2023-03-11T09:19:39;5.90;99.90
23681;DHT22;62915;50.832;4.462;2023-03-11T09:22:05;6.00;99.90
23681;DHT22;62915;50.832;4.462;2023-03-11T09:24:34;6.00;99.90
23681;DHT22;62915;50.832;4.462;2023-03-11T09:27:00;6.20;99.90
23681;DHT22;62915;50.832;4.462;2023-03-11T09:29:26;6.20;99.90
23681;DHT22;62915;50.832;4.462;2023-03-11T09:31:52;6.40;99.90
23681;DHT22;62915;50.832;4.462;2023-03-11T09:34:18;6.60;99.90
23681;DHT22;62915;50.832;4.462;2023-03-11T09:36:44;6.80;99.90
23681;DHT22;62915;50.832;4.462;2023-03-11T09:39:10;7.10;99.90
23681;DHT22;62915;50.832;4.462;2023-03-11T09:44:21;7.40;99.90
23681;DHT22;62915;50.832;4.462;2023-03-11T09:52:05;8.10;99.90
23681;DHT22;62915;50.832;4.462;2023-03-11T09:54:38;8.50;99.90
23681;DHT22;62915;50.832;4.462;2023-03-11T09:57:05;8.90;99.90
23681;DHT22;62915;50.832;4.462;2023-03-11T09:59:35;9.20;99.90
23681;DHT22;62915;50.832;4.462;2023-03-11T10:02:04;9.70;99.90
23681;DHT22;62915;50.832;4.462;2023-03-11T10:07:11;9.50;99.90
23681;DHT22;62915;50.832;4.462;2023-03-11T10:09:50;9.30;99.90
23681;DHT22;62915;50.832;4.462;2023-03-11T10:18:35;10.10;99.90
23681;DHT22;62915;50.832;4.462;2023-03-11T10:21:50;10.50;99.90
23681;DHT22;62915;50.832;4.462;2023-03-11T10:26:44;10.90;99.90
23681;DHT22;62915;50.832;4.462;2023-03-11T10:29:20;10.60;99.90
23681;DHT22;62915;50.832;4.462;2023-03-11T10:31:55;10.50;99.90
23681;DHT22;62915;50.832;4.462;2023-03-11T10:37:04;10.50;99.90
23681;DHT22;62915;50.832;4.462;2023-03-11T10:39:34;10.10;99.90
23681;DHT22;62915;50.832;4.462;2023-03-11T10:42:02;9.90;99.50
23681;DHT22;62915;50.832;4.462;2023-03-11T10:44:37;9.40;99.90
23681;DHT22;62915;50.832;4.462;2023-03-11T10:47:04;9.30;99.90
23681;DHT22;62915;50.832;4.462;2023-03-11T10:49:30;9.10;99.90
23681;DHT22;62915;50.832;4.462;2023-03-11T10:51:56;9.00;99.90
23681;DHT22;62915;50.832;4.462;2023-03-11T10:54:29;9.00;99.90
23681;DHT22;62915;50.832;4.462;2023-03-11T10:56:58;9.00;99.90
23681;DHT22;62915;50.832;4.462;2023-03-11T11:02:48;8.90;99.90
23681;DHT22;62915;50.832;4.462;2023-03-11T11:04:42;9.00;99.90
23681;DHT22;62915;50.832;4.462;2023-03-11T11:07:31;9.20;99.90
23681;DHT22;62915;50.832;4.462;2023-03-11T11:10:21;9.40;99.90
23681;DHT22;62915;50.832;4.462;2023-03-11T11:15:49;9.30;99.90
23681;DHT22;62915;50.832;4.462;2023-03-11T11:18:22;9.30;99.90
23681;DHT22;62915;50.832;4.462;2023-03-11T11:21:01;9.60;99.90
23681;DHT22;62915;50.832;4.462;2023-03-11T11:23:50;9.70;99.90
23681;DHT22;62915;50.832;4.462;2023-03-11T11:26:22;10.40;99.90
23681;DHT22;62915;50.832;4.462;2023-03-11T11:31:34;9.70;99.90
23681;DHT22;62915;50.832;4.462;2023-03-11T11:34:00;9.10;99.90
23681;DHT22;62915;50.832;4.462;2023-03-11T11:36:31;9.10;99.90
23681;DHT22;62915;50.832;4.462;2023-03-11T11:38:59;9.30;99.90
23681;DHT22;62915;50.832;4.462;2023-03-11T11:41:30;9.40;99.90
23681;DHT22;62915;50.832;4.462;2023-03-11T11:44:03;9.50;99.90
23681;DHT22;62915;50.832;4.462;2023-03-11T11:47:09;9.40;99.90
23681;DHT22;62915;50.832;4.462;2023-03-11T11:49:29;9.90;99.90
23681;DHT22;62915;50.832;4.462;2023-03-11T11:52:09;9.60;99.90
23681;DHT22;62915;50.832;4.462;2023-03-11T11:54:55;9.40;99.90
23681;DHT22;62915;50.832;4.462;2023-03-11T11:57:23;9.60;99.90
23681;DHT22;62915;50.832;4.462;2023-03-11T11:59:49;10.20;99.90
23681;DHT22;62915;50.832;4.462;2023-03-11T12:10:23;9.10;99.90
23681;DHT22;62915;50.832;4.462;2023-03-11T12:15:29;10.30;99.90
23681;DHT22;62915;50.832;4.462;2023-03-11T12:18:01;10.90;99.90
23681;DHT22;62915;50.832;4.462;2023-03-11T12:20:42;10.80;99.90
23681;DHT22;62915;50.832;4.462;2023-03-11T12:23:27;10.60;99.90
23681;DHT22;62915;50.832;4.462;2023-03-11T12:31:12;10.30;99.90
23681;DHT22;62915;50.832;4.462;2023-03-11T12:33:50;10.70;99.90
23681;DHT22;62915;50.832;4.462;2023-03-11T12:36:28;11.10;99.90
23681;DHT22;62915;50.832;4.462;2023-03-11T12:38:55;11.20;99.90
23681;DHT22;62915;50.832;4.462;2023-03-11T12:44:01;11.30;99.90
23681;DHT22;62915;50.832;4.462;2023-03-11T12:46:59;11.20;99.90
23681;DHT22;62915;50.832;4.462;2023-03-11T12:49:31;10.80;99.90
23681;DHT22;62915;50.832;4.462;2023-03-11T12:54:32;11.60;99.90
23681;DHT22;62915;50.832;4.462;2023-03-11T13:03:13;11.80;99.90
23681;DHT22;62915;50.832;4.462;2023-03-11T13:05:53;11.90;97.70
23681;DHT22;62915;50.832;4.462;2023-03-11T13:08:23;11.40;99.90
23681;DHT22;62915;50.832;4.462;2023-03-11T13:10:54;11.20;99.90
23681;DHT22;62915;50.832;4.462;2023-03-11T13:18:43;10.40;99.90
23681;DHT22;62915;50.832;4.462;2023-03-11T13:27:09;10.20;99.90
23681;DHT22;62915;50.832;4.462;2023-03-11T13:37:45;9.90;99.90
23681;DHT22;62915;50.832;4.462;2023-03-11T13:43:04;9.20;99.90
23681;DHT22;62915;50.832;4.462;2023-03-11T13:45:35;9.20;99.90
23681;DHT22;62915;50.832;4.462;2023-03-11T13:50:42;8.80;99.90
23681;DHT22;62915;50.832;4.462;2023-03-11T13:56:26;8.80;99.90
23681;DHT22;62915;50.832;4.462;2023-03-11T13:58:52;8.70;99.90
23681;DHT22;62915;50.832;4.462;2023-03-11T14:01:18;8.80;99.90
23681;DHT22;62915;50.832;4.462;2023-03-11T14:03:46;9.00;99.90
23681;DHT22;62915;50.832;4.462;2023-03-11T14:06:15;9.40;99.90
23681;DHT22;62915;50.832;4.462;2023-03-11T14:08:41;9.60;99.90
23681;DHT22;62915;50.832;4.462;2023-03-11T14:13:43;9.00;99.90
23681;DHT22;62915;50.832;4.462;2023-03-11T14:16:14;8.80;99.90
23681;DHT22;62915;50.832;4.462;2023-03-11T14:18:47;8.80;99.90
23681;DHT22;62915;50.832;4.462;2023-03-11T14:21:26;9.00;99.90
23681;DHT22;62915;50.832;4.462;2023-03-11T14:23:54;9.20;99.90
23681;DHT22;62915;50.832;4.462;2023-03-11T14:26:26;9.40;99.90
23681;DHT22;62915;50.832;4.462;2023-03-11T14:28:56;9.60;99.90
23681;DHT22;62915;50.832;4.462;2023-03-11T14:31:31;9.70;99.90
23681;DHT22;62915;50.832;4.462;2023-03-11T14:36:46;9.90;99.90
23681;DHT22;62915;50.832;4.462;2023-03-11T14:39:37;10.10;99.90
23681;DHT22;62915;50.832;4.462;2023-03-11T14:42:05;10.20;99.90
23681;DHT22;62915;50.832;4.462;2023-03-11T14:44:36;10.40;99.90
23681;DHT22;62915;50.832;4.462;2023-03-11T14:47:24;10.20;99.90
23681;DHT22;62915;50.832;4.462;2023-03-11T14:49:52;10.40;99.90
23681;DHT22;62915;50.832;4.462;2023-03-11T14:52:36;10.60;99.90
23681;DHT22;62915;50.832;4.462;2023-03-11T14:55:15;10.80;99.90
23681;DHT22;62915;50.832;4.462;2023-03-11T14:57:46;10.90;99.90
23681;DHT22;62915;50.832;4.462;2023-03-11T15:00:53;10.50;99.00
23681;DHT22;62915;50.832;4.462;2023-03-11T15:03:30;10.10;99.90
23681;DHT22;62915;50.832;4.462;2023-03-11T15:06:05;10.10;99.30
23681;DHT22;62915;50.832;4.462;2023-03-11T15:08:36;9.90;99.90
23681;DHT22;62915;50.832;4.462;2023-03-11T15:13:39;9.70;99.50
23681;DHT22;62915;50.832;4.462;2023-03-11T15:18:50;9.80;99.90
23681;DHT22;62915;50.832;4.462;2023-03-11T15:21:18;9.80;99.90
23681;DHT22;62915;50.832;4.462;2023-03-11T15:23:49;10.00;99.90
23681;DHT22;62915;50.832;4.462;2023-03-11T15:26:21;10.00;99.90
23681;DHT22;62915;50.832;4.462;2023-03-11T15:29:11;9.80;99.90
23681;DHT22;62915;50.832;4.462;2023-03-11T15:31:38;9.70;99.90
23681;DHT22;62915;50.832;4.462;2023-03-11T15:41:44;9.80;99.50
23681;DHT22;62915;50.832;4.462;2023-03-11T15:47:24;10.00;99.90
23681;DHT22;62915;50.832;4.462;2023-03-11T15:49:50;10.50;99.90
23681;DHT22;62915;50.832;4.462;2023-03-11T15:52:16;10.70;99.90
23681;DHT22;62915;50.832;4.462;2023-03-11T15:54:43;11.00;99.90
23681;DHT22;62915;50.832;4.462;2023-03-11T15:57:23;11.30;99.90
23681;DHT22;62915;50.832;4.462;2023-03-11T15:59:50;11.50;99.20
23681;DHT22;62915;50.832;4.462;2023-03-11T16:02:29;11.60;98.50
23681;DHT22;62915;50.832;4.462;2023-03-11T16:04:56;11.60;98.20
23681;DHT22;62915;50.832;4.462;2023-03-11T16:07:23;11.40;96.50
23681;DHT22;62915;50.832;4.462;2023-03-11T16:09:48;11.50;99.90
23681;DHT22;62915;50.832;4.462;2023-03-11T16:12:20;11.70;99.80
23681;DHT22;62915;50.832;4.462;2023-03-11T16:14:47;11.70;98.60
23681;DHT22;62915;50.832;4.462;2023-03-11T16:17:13;11.60;98.20
23681;DHT22;62915;50.832;4.462;2023-03-11T16:19:44;11.60;98.60
23681;DHT22;62915;50.832;4.462;2023-03-11T16:22:16;11.50;96.80
23681;DHT22;62915;50.832;4.462;2023-03-11T16:24:44;11.40;96.50
23681;DHT22;62915;50.832;4.462;2023-03-11T16:27:13;11.40;97.90
23681;DHT22;62915;50.832;4.462;2023-03-11T16:29:44;11.40;98.70
23681;DHT22;62915;50.832;4.462;2023-03-11T16:32:10;11.40;99.00
23681;DHT22;62915;50.832;4.462;2023-03-11T16:34:37;11.50;99.90
23681;DHT22;62915;50.832;4.462;2023-03-11T16:37:06;11.60;99.90
23681;DHT22;62915;50.832;4.462;2023-03-11T16:39:32;11.60;99.90
23681;DHT22;62915;50.832;4.462;2023-03-11T16:41:58;11.70;97.40
23681;DHT22;62915;50.832;4.462;2023-03-11T16:44:24;11.60;96.90
23681;DHT22;62915;50.832;4.462;2023-03-11T16:46:50;11.10;98.80
23681;DHT22;62915;50.832;4.462;2023-03-11T16:49:15;11.00;99.20
23681;DHT22;62915;50.832;4.462;2023-03-11T16:51:41;10.80;99.90
23681;DHT22;62915;50.832;4.462;2023-03-11T16:54:07;10.70;99.90
23681;DHT22;62915;50.832;4.462;2023-03-11T16:56:34;10.50;99.90
23681;DHT22;62915;50.832;4.462;2023-03-11T16:59:00;10.40;99.90
23681;DHT22;62915;50.832;4.462;2023-03-11T17:01:26;10.40;99.90
23681;DHT22;62915;50.832;4.462;2023-03-11T17:03:52;10.30;99.90
23681;DHT22;62915;50.832;4.462;2023-03-11T17:06:19;10.20;99.90
23681;DHT22;62915;50.832;4.462;2023-03-11T17:08:45;10.10;99.90
23681;DHT22;62915;50.832;4.462;2023-03-11T17:11:15;9.80;99.90
23681;DHT22;62915;50.832;4.462;2023-03-11T17:13:42;9.80;99.70
23681;DHT22;62915;50.832;4.462;2023-03-11T17:16:07;9.70;99.90
23681;DHT22;62915;50.832;4.462;2023-03-11T17:18:33;9.70;99.90
23681;DHT22;62915;50.832;4.462;2023-03-11T17:20:58;9.70;99.90
23681;DHT22;62915;50.832;4.462;2023-03-11T17:23:27;9.70;99.90
23681;DHT22;62915;50.832;4.462;2023-03-11T17:25:53;9.60;99.90
23681;DHT22;62915;50.832;4.462;2023-03-11T17:28:18;9.50;99.90
23681;DHT22;62915;50.832;4.462;2023-03-11T17:30:44;9.50;99.90
23681;DHT22;62915;50.832;4.462;2023-03-11T17:33:10;9.50;99.90
23681;DHT22;62915;50.832;4.462;2023-03-11T17:35:36;9.50;99.90
23681;DHT22;62915;50.832;4.462;2023-03-11T17:38:02;9.50;99.90
23681;DHT22;62915;50.832;4.462;2023-03-11T17:40:27;9.50;99.90
23681;DHT22;62915;50.832;4.462;2023-03-11T17:42:54;9.50;99.90